sensor_id;sensor_type;location;lat;lon;timestamp;pressure;altitude;pressure_sealevel;temperature;humidity
37238;BME280;23129;49.662;8.448;2023-05-17T00:00:02;101261.38;;;10.46;59.25
37238;BME280;23129;49.662;8.448;2023-05-17T00:02:33;101263.16;;;10.45;59.35
37238;BME280;23129;49.662;8.448;2023-05-17T00:05:02;101263.13;;;10.47;59.30
37238;BME280;23129;49.662;8.448;2023-05-17T00:07:31;101265.72;;;10.48;59.43
37238;BME280;23129;49.662;8.448;2023-05-17T00:09:59;101273.56;;;10.51;59.44
37238;BME280;23129;49.662;8.448;2023-05-17T00:12:28;101269.16;;;10.54;59.59
37238;BME280;23129;49.662;8.448;2023-05-17T00:14:58;101281.34;;;10.58;59.44
37238;BME280;23129;49.662;8.448;2023-05-17T00:17:28;101274.31;;;10.60;59.60
37238;BME280;23129;49.662;8.448;2023-05-17T00:19:56;101267.25;;;10.62;59.61
37238;BME280;23129;49.662;8.448;2023-05-17T00:22:25;101264.59;;;10.65;59.83
37238;BME280;23129;49.662;8.448;2023-05-17T00:24:54;101266.34;;;10.66;59.92
37238;BME280;23129;49.662;8.448;2023-05-17T00:27:22;101265.44;;;10.67;59.87
37238;BME280;23129;49.662;8.448;2023-05-17T00:29:51;101272.44;;;10.68;59.83
37238;BME280;23129;49.662;8.448;2023-05-17T00:32:21;101270.66;;;10.70;59.97
37238;BME280;23129;49.662;8.448;2023-05-17T00:34:50;101279.44;;;10.69;60.17
37238;BME280;23129;49.662;8.448;2023-05-17T00:37:18;101268.97;;;10.66;60.39
37238;BME280;23129;49.662;8.448;2023-05-17T00:39:47;101268.97;;;10.66;60.39
37238;BME280;23129;49.662;8.448;2023-05-17T00:42:15;101272.47;;;10.65;60.46
37238;BME280;23129;49.662;8.448;2023-05-17T00:44:44;101267.22;;;10.65;60.53
37238;BME280;23129;49.662;8.448;2023-05-17T00:47:12;101272.47;;;10.65;60.66
37238;BME280;23129;49.662;8.448;2023-05-17T00:49:42;101279.47;;;10.66;60.82
37238;BME280;23129;49.662;8.448;2023-05-17T00:52:12;101278.66;;;10.62;60.79
37238;BME280;23129;49.662;8.448;2023-05-17T00:54:41;101285.63;;;10.62;60.98
37238;BME280;23129;49.662;8.448;2023-05-17T00:57:09;101281.34;;;10.58;61.22
37238;BME280;23129;49.662;8.448;2023-05-17T00:59:39;101282.22;;;10.55;61.37
37238;BME280;23129;49.662;8.448;2023-05-17T01:02:08;101276.22;;;10.48;61.77
37238;BME280;23129;49.662;8.448;2023-05-17T01:04:37;101280.66;;;10.45;62.07
37238;BME280;23129;49.662;8.448;2023-05-17T01:07:07;101288.56;;;10.40;62.07
37238;BME280;23129;49.662;8.448;2023-05-17T01:09:37;101287.75;;;10.37;62.44
37238;BME280;23129;49.662;8.448;2023-05-17T01:12:17;101283.41;;;10.36;62.48
37238;BME280;23129;49.662;8.448;2023-05-17T01:14:53;101285.19;;;10.32;62.75
37238;BME280;23129;49.662;8.448;2023-05-17T01:17:35;101286.97;;;10.30;62.91
37238;BME280;23129;49.662;8.448;2023-05-17T01:20:13;101295.69;;;10.26;62.89
37238;BME280;23129;49.662;8.448;2023-05-17T01:22:57;101296.69;;;10.20;63.19
37238;BME280;23129;49.662;8.448;2023-05-17T01:25:51;101296.72;;;10.17;63.13
37238;BME280;23129;49.662;8.448;2023-05-17T01:28:24;101301.19;;;10.07;63.42
37238;BME280;23129;49.662;8.448;2023-05-17T01:30:55;101309.09;;;10.03;63.65
37238;BME280;23129;49.662;8.448;2023-05-17T01:33:26;101315.28;;;9.97;63.82
37238;BME280;23129;49.662;8.448;2023-05-17T01:35:54;101316.22;;;9.93;63.91
37238;BME280;23129;49.662;8.448;2023-05-17T01:38:23;101313.66;;;9.87;64.14
37238;BME280;23129;49.662;8.448;2023-05-17T01:40:57;101310.19;;;9.85;64.10
37238;BME280;23129;49.662;8.448;2023-05-17T01:43:38;101311.13;;;9.78;64.13
37238;BME280;23129;49.662;8.448;2023-05-17T01:46:13;101313.81;;;9.72;64.43
37238;BME280;23129;49.662;8.448;2023-05-17T01:48:50;101315.63;;;9.67;64.65
37238;BME280;23129;49.662;8.448;2023-05-17T01:51:22;101314.81;;;9.58;64.90
37238;BME280;23129;49.662;8.448;2023-05-17T01:53:57;101327.97;;;9.52;65.01
37238;BME280;23129;49.662;8.448;2023-05-17T01:56:33;101319.31;;;9.44;65.20
37238;BME280;23129;49.662;8.448;2023-05-17T01:59:06;101322.84;;;9.40;65.35
37238;BME280;23129;49.662;8.448;2023-05-17T02:01:36;101326.38;;;9.33;65.55
37238;BME280;23129;49.662;8.448;2023-05-17T02:04:06;101328.19;;;9.28;65.75
37238;BME280;23129;49.662;8.448;2023-05-17T02:06:34;101323.00;;;9.25;65.75
37238;BME280;23129;49.662;8.448;2023-05-17T02:09:03;101331.72;;;9.21;65.69
37238;BME280;23129;49.662;8.448;2023-05-17T02:11:32;101331.78;;;9.14;65.89
37238;BME280;23129;49.662;8.448;2023-05-17T02:14:00;101332.69;;;9.10;65.90
37238;BME280;23129;49.662;8.448;2023-05-17T02:16:31;101337.09;;;9.07;66.17
37238;BME280;23129;49.662;8.448;2023-05-17T02:18:59;101331.00;;;9.00;66.32
37238;BME280;23129;49.662;8.448;2023-05-17T02:21:28;101340.66;;;8.95;66.26
37238;BME280;23129;49.662;8.448;2023-05-17T02:23:56;101340.66;;;8.90;66.45
37238;BME280;23129;49.662;8.448;2023-05-17T02:26:24;101339.84;;;8.87;66.48
37238;BME280;23129;49.662;8.448;2023-05-17T02:28:55;101339.81;;;8.85;66.65
37238;BME280;23129;49.662;8.448;2023-05-17T02:31:24;101340.72;;;8.84;66.81
37238;BME280;23129;49.662;8.448;2023-05-17T02:33:54;101338.97;;;8.82;66.63
37238;BME280;23129;49.662;8.448;2023-05-17T02:36:23;101335.53;;;8.80;67.07
37238;BME280;23129;49.662;8.448;2023-05-17T02:38:51;101345.97;;;8.78;67.16
37238;BME280;23129;49.662;8.448;2023-05-17T02:41:20;101346.00;;;8.77;67.06
37238;BME280;23129;49.662;8.448;2023-05-17T02:43:50;101346.00;;;8.77;67.26
37238;BME280;23129;49.662;8.448;2023-05-17T02:46:18;101352.13;;;8.74;67.50
37238;BME280;23129;49.662;8.448;2023-05-17T02:48:47;101348.66;;;8.71;67.61
37238;BME280;23129;49.662;8.448;2023-05-17T02:51:17;101352.13;;;8.69;67.70
37238;BME280;23129;49.662;8.448;2023-05-17T02:53:46;101346.94;;;8.68;67.71
37238;BME280;23129;49.662;8.448;2023-05-17T02:56:14;101355.63;;;8.67;67.98
37238;BME280;23129;49.662;8.448;2023-05-17T02:58:43;101355.66;;;8.65;67.86
37238;BME280;23129;49.662;8.448;2023-05-17T03:01:11;101353.06;;;8.62;68.04
37238;BME280;23129;49.662;8.448;2023-05-17T03:03:40;101358.28;;;8.62;68.13
37238;BME280;23129;49.662;8.448;2023-05-17T03:06:10;101363.53;;;8.59;68.28
37238;BME280;23129;49.662;8.448;2023-05-17T03:08:39;101360.91;;;8.59;68.24
37238;BME280;23129;49.662;8.448;2023-05-17T03:11:08;101368.75;;;8.58;68.27
37238;BME280;23129;49.662;8.448;2023-05-17T03:13:37;101365.28;;;8.57;68.39
37238;BME280;23129;49.662;8.448;2023-05-17T03:16:06;101364.41;;;8.57;68.46
37238;BME280;23129;49.662;8.448;2023-05-17T03:18:35;101369.63;;;8.55;68.54
37238;BME280;23129;49.662;8.448;2023-05-17T03:21:04;101365.28;;;8.54;68.71
37238;BME280;23129;49.662;8.448;2023-05-17T03:23:33;101367.03;;;8.52;68.74
37238;BME280;23129;49.662;8.448;2023-05-17T03:26:04;101373.13;;;8.54;68.82
37238;BME280;23129;49.662;8.448;2023-05-17T03:28:39;101373.16;;;8.51;68.85
37238;BME280;23129;49.662;8.448;2023-05-17T03:31:08;101377.50;;;8.52;68.98
37238;BME280;23129;49.662;8.448;2023-05-17T03:33:37;101385.34;;;8.52;69.00
37238;BME280;23129;49.662;8.448;2023-05-17T03:36:06;101380.97;;;8.54;69.17
37238;BME280;23129;49.662;8.448;2023-05-17T03:38:34;101390.56;;;8.52;69.16
37238;BME280;23129;49.662;8.448;2023-05-17T03:41:05;101393.16;;;8.55;69.27
37238;BME280;23129;49.662;8.448;2023-05-17T03:43:33;101386.22;;;8.54;69.23
37238;BME280;23129;49.662;8.448;2023-05-17T03:46:02;101387.94;;;8.55;69.42
37238;BME280;23129;49.662;8.448;2023-05-17T03:48:31;101387.94;;;8.55;69.61
37238;BME280;23129;49.662;8.448;2023-05-17T03:51:03;101393.16;;;8.55;69.80
37238;BME280;23129;49.662;8.448;2023-05-17T03:53:33;101395.78;;;8.55;69.82
37238;BME280;23129;49.662;8.448;2023-05-17T03:56:05;101388.84;;;8.56;69.89
37238;BME280;23129;49.662;8.448;2023-05-17T03:58:33;101396.66;;;8.54;69.98
37238;BME280;23129;49.662;8.448;2023-05-17T04:01:03;101394.06;;;8.54;70.02
37238;BME280;23129;49.662;8.448;2023-05-17T04:03:33;101396.66;;;8.54;70.46
37238;BME280;23129;49.662;8.448;2023-05-17T04:06:03;101394.94;;;8.56;70.40
37238;BME280;23129;49.662;8.448;2023-05-17T04:08:34;101400.16;;;8.56;70.28
37238;BME280;23129;49.662;8.448;2023-05-17T04:11:04;101399.28;;;8.57;70.56
37238;BME280;23129;49.662;8.448;2023-05-17T04:13:40;101401.00;;;8.58;70.57
37238;BME280;23129;49.662;8.448;2023-05-17T04:16:09;101402.72;;;8.61;70.76
37238;BME280;23129;49.662;8.448;2023-05-17T04:18:40;101405.34;;;8.62;70.68
37238;BME280;23129;49.662;8.448;2023-05-17T04:21:09;101413.19;;;8.65;70.70
37238;BME280;23129;49.662;8.448;2023-05-17T04:23:38;101405.31;;;8.68;70.87
37238;BME280;23129;49.662;8.448;2023-05-17T04:26:09;101414.00;;;8.75;70.74
37238;BME280;23129;49.662;8.448;2023-05-17T04:28:39;101409.66;;;8.77;70.85
37238;BME280;23129;49.662;8.448;2023-05-17T04:31:09;101412.22;;;8.82;70.96
37238;BME280;23129;49.662;8.448;2023-05-17T04:33:38;101420.94;;;8.87;70.82
37238;BME280;23129;49.662;8.448;2023-05-17T04:36:07;101418.28;;;8.93;70.93
37238;BME280;23129;49.662;8.448;2023-05-17T04:38:37;101415.66;;;8.96;71.14
37238;BME280;23129;49.662;8.448;2023-05-17T04:41:12;101417.34;;;9.00;71.08
37238;BME280;23129;49.662;8.448;2023-05-17T04:43:42;101424.34;;;9.01;71.30
37238;BME280;23129;49.662;8.448;2023-05-17T04:46:19;101422.56;;;9.05;71.21
37238;BME280;23129;49.662;8.448;2023-05-17T04:48:47;101429.53;;;9.10;71.16
37238;BME280;23129;49.662;8.448;2023-05-17T04:51:16;101430.34;;;9.17;71.33
37238;BME280;23129;49.662;8.448;2023-05-17T04:53:46;101435.56;;;9.25;71.34
37238;BME280;23129;49.662;8.448;2023-05-17T04:56:18;101446.81;;;9.33;71.37
37238;BME280;23129;49.662;8.448;2023-05-17T04:58:47;101439.78;;;9.41;71.30
37238;BME280;23129;49.662;8.448;2023-05-17T05:01:18;101444.97;;;9.50;71.37
37238;BME280;23129;49.662;8.448;2023-05-17T05:03:49;101444.91;;;9.59;71.43
37238;BME280;23129;49.662;8.448;2023-05-17T05:06:17;101446.63;;;9.64;71.34
37238;BME280;23129;49.662;8.448;2023-05-17T05:08:48;101453.56;;;9.68;71.55
37238;BME280;23129;49.662;8.448;2023-05-17T05:11:18;101446.56;;;9.70;71.72
37238;BME280;23129;49.662;8.448;2023-05-17T05:13:46;101452.69;;;9.69;71.55
37238;BME280;23129;49.662;8.448;2023-05-17T05:16:15;101451.81;;;9.70;71.66
37238;BME280;23129;49.662;8.448;2023-05-17T05:18:44;101457.09;;;9.67;71.94
37238;BME280;23129;49.662;8.448;2023-05-17T05:21:13;101468.41;;;9.66;72.03
37238;BME280;23129;49.662;8.448;2023-05-17T05:23:42;101471.91;;;9.68;72.14
37238;BME280;23129;49.662;8.448;2023-05-17T05:26:12;101478.00;;;9.70;72.29
37238;BME280;23129;49.662;8.448;2023-05-17T05:28:42;101482.34;;;9.74;72.34
37238;BME280;23129;49.662;8.448;2023-05-17T05:31:11;101481.44;;;9.76;72.37
37238;BME280;23129;49.662;8.448;2023-05-17T05:33:45;101484.03;;;9.79;72.40
37238;BME280;23129;49.662;8.448;2023-05-17T05:36:14;101487.50;;;9.85;72.66
37238;BME280;23129;49.662;8.448;2023-05-17T05:38:43;101477.88;;;9.88;72.53
37238;BME280;23129;49.662;8.448;2023-05-17T05:41:11;101484.81;;;9.92;72.55
37238;BME280;23129;49.662;8.448;2023-05-17T05:43:41;101492.59;;;10.01;72.66
37238;BME280;23129;49.662;8.448;2023-05-17T05:46:10;101492.53;;;10.07;72.55
37238;BME280;23129;49.662;8.448;2023-05-17T05:48:40;101500.31;;;10.17;72.39
37238;BME280;23129;49.662;8.448;2023-05-17T05:51:10;101496.78;;;10.24;72.60
37238;BME280;23129;49.662;8.448;2023-05-17T05:53:41;101498.47;;;10.31;72.28
37238;BME280;23129;49.662;8.448;2023-05-17T05:56:10;101494.06;;;10.35;72.41
37238;BME280;23129;49.662;8.448;2023-05-17T05:58:39;101499.25;;;10.41;72.37
37238;BME280;23129;49.662;8.448;2023-05-17T06:01:10;101493.94;;;10.48;72.46
37238;BME280;23129;49.662;8.448;2023-05-17T06:03:38;101500.00;;;10.54;72.29
37238;BME280;23129;49.662;8.448;2023-05-17T06:06:07;101503.44;;;10.59;72.37
37238;BME280;23129;49.662;8.448;2023-05-17T06:08:36;101501.63;;;10.64;72.58
37238;BME280;23129;49.662;8.448;2023-05-17T06:11:05;101504.22;;;10.68;72.64
37238;BME280;23129;49.662;8.448;2023-05-17T06:13:33;101502.41;;;10.72;72.46
37238;BME280;23129;49.662;8.448;2023-05-17T06:16:02;101509.34;;;10.76;72.52
37238;BME280;23129;49.662;8.448;2023-05-17T06:18:33;101518.03;;;10.83;72.52
37238;BME280;23129;49.662;8.448;2023-05-17T06:21:02;101521.50;;;10.85;72.26
37238;BME280;23129;49.662;8.448;2023-05-17T06:23:30;101519.72;;;10.90;72.31
37238;BME280;23129;49.662;8.448;2023-05-17T06:25:59;101524.88;;;10.96;72.32
37238;BME280;23129;49.662;8.448;2023-05-17T06:28:28;101522.19;;;11.01;72.19
37238;BME280;23129;49.662;8.448;2023-05-17T06:30:56;101525.63;;;11.06;72.06
37238;BME280;23129;49.662;8.448;2023-05-17T06:33:25;101525.59;;;11.09;72.13
37238;BME280;23129;49.662;8.448;2023-05-17T06:35:55;101529.91;;;11.14;72.13
37238;BME280;23129;49.662;8.448;2023-05-17T06:38:25;101530.69;;;11.21;71.96
37238;BME280;23129;49.662;8.448;2023-05-17T06:40:54;101537.56;;;11.31;71.80
37238;BME280;23129;49.662;8.448;2023-05-17T06:43:23;101528.72;;;11.38;71.48
37238;BME280;23129;49.662;8.448;2023-05-17T06:45:52;101539.13;;;11.45;71.47
37238;BME280;23129;49.662;8.448;2023-05-17T06:48:20;101540.84;;;11.49;71.60
37238;BME280;23129;49.662;8.448;2023-05-17T06:50:49;101542.53;;;11.53;71.44
37238;BME280;23129;49.662;8.448;2023-05-17T06:53:19;101540.72;;;11.58;71.38
37238;BME280;23129;49.662;8.448;2023-05-17T06:55:48;101540.66;;;11.61;71.20
37238;BME280;23129;49.662;8.448;2023-05-17T06:58:16;101544.06;;;11.66;71.16
37238;BME280;23129;49.662;8.448;2023-05-17T07:00:45;101541.31;;;11.77;71.03
37238;BME280;23129;49.662;8.448;2023-05-17T07:03:14;101537.66;;;11.88;70.67
37238;BME280;23129;49.662;8.448;2023-05-17T07:05:42;101545.38;;;11.98;70.64
37238;BME280;23129;49.662;8.448;2023-05-17T07:08:11;101539.97;;;12.07;70.34
37238;BME280;23129;49.662;8.448;2023-05-17T07:10:42;101552.94;;;12.19;70.08
37238;BME280;23129;49.662;8.448;2023-05-17T07:13:13;101560.66;;;12.28;69.67
37238;BME280;23129;49.662;8.448;2023-05-17T07:15:42;101555.19;;;12.41;69.62
37238;BME280;23129;49.662;8.448;2023-05-17T07:18:11;101550.53;;;12.56;69.25
37238;BME280;23129;49.662;8.448;2023-05-17T07:20:39;101551.00;;;12.78;68.84
37238;BME280;23129;49.662;8.448;2023-05-17T07:23:08;101559.25;;;13.05;68.59
37238;BME280;23129;49.662;8.448;2023-05-17T07:25:37;101547.22;;;13.35;68.57
37238;BME280;23129;49.662;8.448;2023-05-17T07:28:07;101552.25;;;13.85;68.50
37238;BME280;23129;49.662;8.448;2023-05-17T07:30:36;101548.63;;;14.60;67.12
37238;BME280;23129;49.662;8.448;2023-05-17T07:33:05;101551.19;;;15.56;65.21
37238;BME280;23129;49.662;8.448;2023-05-17T07:35:34;101549.84;;;16.52;63.27
37238;BME280;23129;49.662;8.448;2023-05-17T07:38:02;101543.63;;;17.26;61.75
37238;BME280;23129;49.662;8.448;2023-05-17T07:40:31;101543.19;;;17.83;60.72
37238;BME280;23129;49.662;8.448;2023-05-17T07:43:00;101545.63;;;18.31;60.05
37238;BME280;23129;49.662;8.448;2023-05-17T07:45:30;101533.88;;;18.78;59.47
37238;BME280;23129;49.662;8.448;2023-05-17T07:47:59;101536.59;;;19.15;58.14
37238;BME280;23129;49.662;8.448;2023-05-17T07:50:30;101528.47;;;19.37;57.94
37238;BME280;23129;49.662;8.448;2023-05-17T07:53:01;101534.25;;;19.66;57.31
37238;BME280;23129;49.662;8.448;2023-05-17T07:55:29;101532.47;;;19.84;56.60
37238;BME280;23129;49.662;8.448;2023-05-17T07:57:58;101534.28;;;19.83;56.07
37238;BME280;23129;49.662;8.448;2023-05-17T08:00:27;101538.69;;;19.28;56.88
37238;BME280;23129;49.662;8.448;2023-05-17T08:02:57;101551.13;;;18.47;58.22
37238;BME280;23129;49.662;8.448;2023-05-17T08:05:25;101548.25;;;17.89;59.54
37238;BME280;23129;49.662;8.448;2023-05-17T08:07:54;101542.78;;;17.48;59.86
37238;BME280;23129;49.662;8.448;2023-05-17T08:10:26;101542.31;;;17.37;59.30
37238;BME280;23129;49.662;8.448;2023-05-17T08:12:55;101532.38;;;17.65;58.29
37238;BME280;23129;49.662;8.448;2023-05-17T08:15:23;101544.31;;;17.99;57.04
37238;BME280;23129;49.662;8.448;2023-05-17T08:17:52;101548.72;;;18.20;56.22
37238;BME280;23129;49.662;8.448;2023-05-17T08:20:22;101534.00;;;18.34;55.83
37238;BME280;23129;49.662;8.448;2023-05-17T08:22:51;101544.09;;;18.46;54.77
37238;BME280;23129;49.662;8.448;2023-05-17T08:25:20;101541.31;;;18.49;54.35
37238;BME280;23129;49.662;8.448;2023-05-17T08:27:48;101533.31;;;18.69;53.91
37238;BME280;23129;49.662;8.448;2023-05-17T08:30:17;101536.78;;;18.71;53.67
37238;BME280;23129;49.662;8.448;2023-05-17T08:32:55;101536.25;;;18.84;52.85
37238;BME280;23129;49.662;8.448;2023-05-17T08:35:26;101539.97;;;19.00;52.37
37238;BME280;23129;49.662;8.448;2023-05-17T08:37:55;101539.97;;;19.00;52.05
37238;BME280;23129;49.662;8.448;2023-05-17T08:40:23;101537.78;;;19.08;51.79
37238;BME280;23129;49.662;8.448;2023-05-17T08:42:52;101541.34;;;19.09;51.18
37238;BME280;23129;49.662;8.448;2023-05-17T08:45:21;101531.69;;;19.06;51.16
37238;BME280;23129;49.662;8.448;2023-05-17T08:47:50;101527.84;;;18.93;51.21
37238;BME280;23129;49.662;8.448;2023-05-17T08:50:20;101523.75;;;18.65;51.36
37238;BME280;23129;49.662;8.448;2023-05-17T08:52:51;101531.88;;;18.42;51.54
37238;BME280;23129;49.662;8.448;2023-05-17T08:55:20;101523.38;;;18.34;51.50
37238;BME280;23129;49.662;8.448;2023-05-17T08:57:49;101522.97;;;18.43;51.23
37238;BME280;23129;49.662;8.448;2023-05-17T09:00:20;101523.72;;;18.46;50.98
37238;BME280;23129;49.662;8.448;2023-05-17T09:02:52;101524.97;;;18.38;50.83
37238;BME280;23129;49.662;8.448;2023-05-17T09:05:21;101531.34;;;18.34;50.78
37238;BME280;23129;49.662;8.448;2023-05-17T09:07:51;101524.50;;;18.28;50.45
37238;BME280;23129;49.662;8.448;2023-05-17T09:10:20;101524.00;;;18.18;50.57
37238;BME280;23129;49.662;8.448;2023-05-17T09:12:50;101526.66;;;17.98;50.74
37238;BME280;23129;49.662;8.448;2023-05-17T09:15:21;101526.53;;;17.79;50.91
37238;BME280;23129;49.662;8.448;2023-05-17T09:17:53;101522.00;;;17.59;50.86
37238;BME280;23129;49.662;8.448;2023-05-17T09:20:22;101527.09;;;17.42;50.64
37238;BME280;23129;49.662;8.448;2023-05-17T09:22:54;101537.16;;;17.33;50.85
37238;BME280;23129;49.662;8.448;2023-05-17T09:25:23;101529.31;;;17.30;50.88
37238;BME280;23129;49.662;8.448;2023-05-17T09:27:52;101533.91;;;17.25;50.52
37238;BME280;23129;49.662;8.448;2023-05-17T09:30:26;101540.50;;;17.15;50.86
37238;BME280;23129;49.662;8.448;2023-05-17T09:32:56;101533.78;;;17.05;50.53
37238;BME280;23129;49.662;8.448;2023-05-17T09:35:28;101533.16;;;16.98;50.71
37238;BME280;23129;49.662;8.448;2023-05-17T09:38:06;101539.44;;;16.96;50.61
37238;BME280;23129;49.662;8.448;2023-05-17T09:40:38;101539.66;;;16.89;50.54
37238;BME280;23129;49.662;8.448;2023-05-17T09:43:07;101533.84;;;16.80;50.63
37238;BME280;23129;49.662;8.448;2023-05-17T09:45:37;101534.00;;;16.75;50.67
37238;BME280;23129;49.662;8.448;2023-05-17T09:48:13;101546.94;;;16.84;50.50
37238;BME280;23129;49.662;8.448;2023-05-17T09:50:43;101538.56;;;16.95;50.31
37238;BME280;23129;49.662;8.448;2023-05-17T09:53:24;101541.50;;;17.11;49.96
37238;BME280;23129;49.662;8.448;2023-05-17T09:55:55;101543.06;;;17.17;50.03
37238;BME280;23129;49.662;8.448;2023-05-17T09:58:28;101530.47;;;17.23;49.56
37238;BME280;23129;49.662;8.448;2023-05-17T10:01:00;101541.94;;;17.47;49.41
37238;BME280;23129;49.662;8.448;2023-05-17T10:03:31;101539.00;;;17.99;48.46
37238;BME280;23129;49.662;8.448;2023-05-17T10:06:01;101530.66;;;18.69;47.44
37238;BME280;23129;49.662;8.448;2023-05-17T10:08:33;101529.63;;;19.51;46.25
37238;BME280;23129;49.662;8.448;2023-05-17T10:11:07;101513.22;;;20.48;44.90
37238;BME280;23129;49.662;8.448;2023-05-17T10:13:43;101513.81;;;21.37;43.83
37238;BME280;23129;49.662;8.448;2023-05-17T10:16:15;101515.47;;;22.02;42.87
37238;BME280;23129;49.662;8.448;2023-05-17T10:18:46;101508.16;;;22.64;41.72
37238;BME280;23129;49.662;8.448;2023-05-17T10:21:15;101497.00;;;23.15;41.16
37238;BME280;23129;49.662;8.448;2023-05-17T10:23:46;101488.94;;;23.71;41.00
37238;BME280;23129;49.662;8.448;2023-05-17T10:26:15;101497.97;;;24.35;39.63
37238;BME280;23129;49.662;8.448;2023-05-17T10:28:44;101494.03;;;24.79;39.22
37238;BME280;23129;49.662;8.448;2023-05-17T10:31:14;101489.09;;;24.73;39.36
37238;BME280;23129;49.662;8.448;2023-05-17T10:33:44;101488.59;;;24.42;39.81
37238;BME280;23129;49.662;8.448;2023-05-17T10:36:17;101497.38;;;24.04;40.53
37238;BME280;23129;49.662;8.448;2023-05-17T10:38:46;101493.41;;;23.43;40.78
37238;BME280;23129;49.662;8.448;2023-05-17T10:41:16;101499.97;;;22.96;41.48
37238;BME280;23129;49.662;8.448;2023-05-17T10:43:46;101499.38;;;22.62;41.44
37238;BME280;23129;49.662;8.448;2023-05-17T10:46:16;101493.78;;;22.22;41.56
37238;BME280;23129;49.662;8.448;2023-05-17T10:48:47;101495.09;;;21.69;42.02
37238;BME280;23129;49.662;8.448;2023-05-17T10:51:22;101494.94;;;21.72;42.22
37238;BME280;23129;49.662;8.448;2023-05-17T10:54:08;101489.41;;;22.36;41.31
37238;BME280;23129;49.662;8.448;2023-05-17T10:56:45;101488.31;;;22.97;40.25
37238;BME280;23129;49.662;8.448;2023-05-17T10:59:20;101485.50;;;23.27;39.70
37238;BME280;23129;49.662;8.448;2023-05-17T11:02:00;101487.72;;;23.47;39.41
37238;BME280;23129;49.662;8.448;2023-05-17T11:04:35;101484.78;;;23.52;39.38
37238;BME280;23129;49.662;8.448;2023-05-17T11:07:26;101479.25;;;23.41;39.42
37238;BME280;23129;49.662;8.448;2023-05-17T11:10:04;101485.16;;;23.19;39.25
37238;BME280;23129;49.662;8.448;2023-05-17T11:12:35;101481.88;;;22.85;39.71
37238;BME280;23129;49.662;8.448;2023-05-17T11:15:08;101484.94;;;22.50;40.06
37238;BME280;23129;49.662;8.448;2023-05-17T11:17:49;101487.69;;;22.20;40.20
37238;BME280;23129;49.662;8.448;2023-05-17T11:20:32;101486.59;;;21.93;40.57
37238;BME280;23129;49.662;8.448;2023-05-17T11:23:11;101487.44;;;21.63;40.60
37238;BME280;23129;49.662;8.448;2023-05-17T11:25:45;101489.34;;;21.61;40.36
37238;BME280;23129;49.662;8.448;2023-05-17T11:28:18;101492.25;;;21.72;39.97
37238;BME280;23129;49.662;8.448;2023-05-17T11:30:48;101488.25;;;21.79;39.67
37238;BME280;23129;49.662;8.448;2023-05-17T11:33:20;101489.22;;;22.39;39.07
37238;BME280;23129;49.662;8.448;2023-05-17T11:36:05;101491.09;;;22.95;38.47
37238;BME280;23129;49.662;8.448;2023-05-17T11:38:40;101486.59;;;22.96;38.14
37238;BME280;23129;49.662;8.448;2023-05-17T11:41:21;101480.41;;;23.37;38.10
37238;BME280;23129;49.662;8.448;2023-05-17T11:43:53;101472.06;;;23.68;37.37
37238;BME280;23129;49.662;8.448;2023-05-17T11:46:22;101478.25;;;23.83;36.80
37238;BME280;23129;49.662;8.448;2023-05-17T11:48:52;101475.16;;;23.62;36.75
37238;BME280;23129;49.662;8.448;2023-05-17T11:51:21;101464.56;;;23.34;37.16
37238;BME280;23129;49.662;8.448;2023-05-17T11:53:53;101474.25;;;23.22;37.02
37238;BME280;23129;49.662;8.448;2023-05-17T11:56:24;101476.28;;;23.04;37.36
37238;BME280;23129;49.662;8.448;2023-05-17T11:59:09;101479.41;;;22.82;37.55
37238;BME280;23129;49.662;8.448;2023-05-17T12:01:45;101480.69;;;22.76;37.63
37238;BME280;23129;49.662;8.448;2023-05-17T12:04:22;101473.88;;;22.56;37.59
37238;BME280;23129;49.662;8.448;2023-05-17T12:06:52;101468.59;;;22.55;37.32
37238;BME280;23129;49.662;8.448;2023-05-17T12:09:22;101462.09;;;23.16;36.33
37238;BME280;23129;49.662;8.448;2023-05-17T12:11:53;101461.31;;;23.83;35.56
37238;BME280;23129;49.662;8.448;2023-05-17T12:14:23;101451.44;;;24.36;34.89
37238;BME280;23129;49.662;8.448;2023-05-17T12:16:53;101449.56;;;24.88;34.40
37238;BME280;23129;49.662;8.448;2023-05-17T12:19:23;101446.13;;;25.35;33.71
37238;BME280;23129;49.662;8.448;2023-05-17T12:22:04;101441.75;;;25.82;33.08
37238;BME280;23129;49.662;8.448;2023-05-17T12:24:37;101444.66;;;26.37;32.63
37238;BME280;23129;49.662;8.448;2023-05-17T12:27:07;101442.16;;;26.69;32.13
37238;BME280;23129;49.662;8.448;2023-05-17T12:29:37;101432.31;;;27.02;31.74
37238;BME280;23129;49.662;8.448;2023-05-17T12:32:07;101434.03;;;27.25;31.68
37238;BME280;23129;49.662;8.448;2023-05-17T12:34:37;101427.66;;;27.15;31.58
37238;BME280;23129;49.662;8.448;2023-05-17T12:37:07;101440.91;;;26.84;31.66
37238;BME280;23129;49.662;8.448;2023-05-17T12:39:37;101435.75;;;26.36;31.99
37238;BME280;23129;49.662;8.448;2023-05-17T12:42:08;101440.34;;;26.23;32.03
37238;BME280;23129;49.662;8.448;2023-05-17T12:44:37;101429.94;;;26.07;32.30
37238;BME280;23129;49.662;8.448;2023-05-17T12:47:08;101424.38;;;26.33;31.80
37238;BME280;23129;49.662;8.448;2023-05-17T12:49:38;101423.13;;;26.37;31.67
37238;BME280;23129;49.662;8.448;2023-05-17T12:52:08;101413.22;;;26.37;31.48
37238;BME280;23129;49.662;8.448;2023-05-17T12:54:38;101421.06;;;26.85;31.10
37238;BME280;23129;49.662;8.448;2023-05-17T12:57:13;101405.69;;;27.63;30.54
37238;BME280;23129;49.662;8.448;2023-05-17T12:59:50;101406.97;;;28.22;30.04
37238;BME280;23129;49.662;8.448;2023-05-17T13:02:19;101407.78;;;28.74;29.04
37238;BME280;23129;49.662;8.448;2023-05-17T13:04:48;101405.53;;;28.79;28.76
37238;BME280;23129;49.662;8.448;2023-05-17T13:07:21;101403.66;;;28.80;29.12
37238;BME280;23129;49.662;8.448;2023-05-17T13:09:50;101408.59;;;28.65;29.33